Brentwood, TN

12:30 PM CST on December 10, 2016 (GMT -0600)
Annandale | | Change Station

Elev 817 ft 36.03 °N, 86.77 °W | Updated 5 minutes ago

Clear
Clear
38.8 °F
Feels Like 39 °F
N
0.0
Wind Variable Wind from ENE
Gusts 1.0 mph

Today
High -- | Low -- °F
--% Chance of Precip.
Yesterday
High -- | Low -- °F
Precip. -- in
Pressure 30.57 in
Visibility 10.0 miles
Clouds Few 18000 ft
Scattered Clouds 25000 ft
Windchill 39 °F
Dew Point 22 °F
Humidity 51%
Rainfall 0.00 in
Snow Depth Not available.
6:47 AM 4:33 PM
Waxing Gibbous, 85% visible
METAR KBNA 101753Z 04004KT 10SM FEW180 SCT250 02/M09 A3055 RMK AO2 SLP352 T00221094 10028 21072 58026
Pressure 30.57 in
Visibility 10.0 miles
Clouds Few 18000 ft
Scattered Clouds 25000 ft
Windchill 39 °F
Dew Point 22 °F
Humidity 51%
Rainfall 0.00 in
Snow Depth Not available.
6:47 AM 4:33 PM
Waxing Gibbous, 85% visible
METAR KBNA 101753Z 04004KT 10SM FEW180 SCT250 02/M09 A3055 RMK AO2 SLP352 T00221094 10028 21072 58026

10-Day Weather Forecast

Almanac

Astronomy

Dec. 10, 2016 Rise Set
Actual Time
Civil Twilight
Nautical Twilight
Astronomical Twilight
Moon
Length of Visible Light
Length of Day
Tomorrow will be .
, % of the Moon is Illuminated

Today's Extremes

State Highs State Lows

Community

WunderPhotos

Upload Photos

1,956,617 photos uploaded!

WunderBlog® & News

Nearby

Air Quality

  Air Quality AQ Index Pollutant
Not available.

Snow Depth

Station Depth Elevation

Earthquake Activity

City Distance Mag. Time & Date
Minimum magnitude displayed is 2.5.

Coastal Water Temperatures

Place Temperature

Stations

Nearby Weather Stations

Station Location Temp. Windchill Dew Point Humidity Wind Precip. Elev Updated Type
                   

Watches & Warnings

There are currently no watches in effect.